createdAt,value
2019-03-28T00:00:02.416Z,76.90
2019-03-28T00:02:30.335Z,76.45
2019-03-28T00:04:58.183Z,76.75
2019-03-28T00:07:26.124Z,76.80
2019-03-28T00:09:53.999Z,76.63
2019-03-28T00:12:21.852Z,77.10
2019-03-28T00:14:49.735Z,76.54
2019-03-28T00:17:17.555Z,77.11
2019-03-28T00:19:45.444Z,76.68
2019-03-28T00:22:18.233Z,76.78
2019-03-28T00:24:54.655Z,76.95
2019-03-28T00:27:22.516Z,76.73
2019-03-28T00:29:50.386Z,77.60
2019-03-28T00:32:18.238Z,76.65
2019-03-28T00:34:46.178Z,77.18
2019-03-28T00:37:14.095Z,76.82
2019-03-28T00:39:42.239Z,76.26
2019-03-28T00:42:10.272Z,76.70
2019-03-28T00:44:38.246Z,77.56
2019-03-28T00:47:06.095Z,77.75
2019-03-28T00:49:34.021Z,77.55
2019-03-28T00:52:02.006Z,77.61
2019-03-28T00:54:29.838Z,77.35
2019-03-28T00:56:57.718Z,78.14
2019-03-28T00:59:25.635Z,77.61
2019-03-28T01:01:53.544Z,77.42
2019-03-28T01:04:21.339Z,77.37
2019-03-28T01:06:49.179Z,77.28
2019-03-28T01:09:17.043Z,77.46
2019-03-28T01:11:45.060Z,77.09
2019-03-28T01:14:12.963Z,77.50
2019-03-28T01:16:40.775Z,76.80
2019-03-28T01:19:08.695Z,76.36
2019-03-28T01:21:36.580Z,76.16
2019-03-28T01:24:04.475Z,76.89
2019-03-28T01:26:32.318Z,76.38
2019-03-28T01:29:00.178Z,76.41
2019-03-28T01:31:28.055Z,75.99
2019-03-28T01:33:55.934Z,76.31
2019-03-28T01:36:25.737Z,76.46
2019-03-28T01:38:53.654Z,77.40
2019-03-28T01:41:21.515Z,76.93
2019-03-28T01:43:49.410Z,77.18
2019-03-28T01:46:17.314Z,76.71
2019-03-28T01:48:45.174Z,77.17
2019-03-28T01:51:13.035Z,77.34
2019-03-28T01:53:40.959Z,77.43
2019-03-28T01:56:08.875Z,77.31
2019-03-28T01:58:36.735Z,77.51
2019-03-28T02:01:04.716Z,77.25
2019-03-28T02:03:32.582Z,76.59
2019-03-28T02:06:00.466Z,76.97
2019-03-28T02:08:28.326Z,77.56
2019-03-28T02:10:56.157Z,77.29
2019-03-28T02:13:24.035Z,77.45
2019-03-28T02:15:51.918Z,76.87
2019-03-28T02:18:19.763Z,77.34
2019-03-28T02:20:47.675Z,77.14
2019-03-28T02:23:15.505Z,76.87
2019-03-28T02:25:43.496Z,77.73
2019-03-28T02:28:11.666Z,77.66
2019-03-28T02:30:39.517Z,76.69
2019-03-28T02:33:07.364Z,77.16
2019-03-28T02:35:35.274Z,77.50
2019-03-28T02:38:03.085Z,77.90
2019-03-28T02:40:30.984Z,77.75
2019-03-28T02:42:58.809Z,78.07
2019-03-28T02:45:26.623Z,77.71
2019-03-28T02:47:54.536Z,77.88
2019-03-28T02:50:23.164Z,77.64
2019-03-28T02:52:51.004Z,77.79
2019-03-28T02:55:18.836Z,78.02
2019-03-28T02:57:46.745Z,77.92
2019-03-28T03:00:14.834Z,78.00
2019-03-28T03:02:42.687Z,78.55
2019-03-28T03:05:10.537Z,78.19
2019-03-28T03:07:38.415Z,77.99
2019-03-28T03:10:07.384Z,78.26
2019-03-28T03:12:35.235Z,78.25
2019-03-28T03:15:03.951Z,79.46
2019-03-28T03:17:31.835Z,78.75
2019-03-28T03:19:59.696Z,78.83
2019-03-28T03:22:28.615Z,78.86
2019-03-28T03:24:56.777Z,78.96
2019-03-28T03:27:24.655Z,78.86
2019-03-28T03:29:52.439Z,78.71
2019-03-28T03:32:20.296Z,79.46
2019-03-28T03:34:48.165Z,79.18
2019-03-28T03:37:15.957Z,79.00
2019-03-28T03:39:43.797Z,78.93
2019-03-28T03:42:11.708Z,78.89
2019-03-28T03:44:39.582Z,79.46
2019-03-28T03:47:07.442Z,79.89
2019-03-28T03:49:35.328Z,79.86
2019-03-28T03:52:03.205Z,79.21
2019-03-28T03:54:31.066Z,79.51
2019-03-28T03:56:58.999Z,78.82
2019-03-28T03:59:26.940Z,78.76
2019-03-28T04:01:54.802Z,79.36
2019-03-28T04:04:22.720Z,80.21
2019-03-28T04:06:50.567Z,80.71
2019-03-28T04:09:18.444Z,80.27
2019-03-28T04:11:46.334Z,79.82
2019-03-28T04:14:14.229Z,79.73
2019-03-28T04:16:42.067Z,79.86
2019-03-28T04:19:09.943Z,79.01
2019-03-28T04:21:37.863Z,79.14
2019-03-28T04:24:05.743Z,78.67
2019-03-28T04:26:33.631Z,78.58
2019-03-28T04:29:01.558Z,78.90
2019-03-28T04:31:29.424Z,78.79
2019-03-28T04:33:57.282Z,78.97
2019-03-28T04:36:25.223Z,79.01
2019-03-28T04:38:53.097Z,78.86
2019-03-28T04:41:20.985Z,79.61
2019-03-28T04:43:48.862Z,79.35
2019-03-28T04:46:16.744Z,79.91
2019-03-28T04:48:44.647Z,80.57
2019-03-28T04:51:12.506Z,80.05
2019-03-28T04:53:40.422Z,79.90
2019-03-28T04:56:08.302Z,80.15
2019-03-28T04:58:44.415Z,80.25
2019-03-28T05:01:06.362Z,79.91
2019-03-28T05:03:34.267Z,80.04
2019-03-28T05:06:02.202Z,80.17
2019-03-28T05:08:30.042Z,80.18
2019-03-28T05:10:57.975Z,80.58
2019-03-28T05:13:25.807Z,80.35
2019-03-28T05:15:53.721Z,80.08
2019-03-28T05:18:21.707Z,80.10
2019-03-28T05:20:49.542Z,80.24
2019-03-28T05:23:17.465Z,79.98
2019-03-28T05:25:46.502Z,80.14
2019-03-28T05:28:14.361Z,80.95
2019-03-28T05:30:42.288Z,81.25
2019-03-28T05:33:11.183Z,81.24
2019-03-28T05:35:39.083Z,80.49
2019-03-28T05:38:06.982Z,80.18
2019-03-28T05:40:34.904Z,79.69
2019-03-28T05:43:02.785Z,80.47
2019-03-28T05:45:30.657Z,80.24
2019-03-28T05:48:00.296Z,80.64
2019-03-28T05:50:28.321Z,80.94
2019-03-28T05:52:56.272Z,81.03
2019-03-28T05:55:24.165Z,80.96
2019-03-28T05:57:52.121Z,80.96
2019-03-28T06:00:20.111Z,80.88
2019-03-28T06:02:47.949Z,80.00
2019-03-28T06:05:15.848Z,80.72
2019-03-28T06:07:43.687Z,81.04
2019-03-28T06:10:11.889Z,80.71
2019-03-28T06:12:39.771Z,80.80
2019-03-28T06:15:08.150Z,80.77
2019-03-28T06:17:36.060Z,81.40
2019-03-28T06:20:05.276Z,80.86
2019-03-28T06:22:33.201Z,80.47
2019-03-28T06:25:03.910Z,81.10
2019-03-28T06:27:30.981Z,80.74
2019-03-28T06:30:01.897Z,80.94
2019-03-28T06:32:41.964Z,81.03
2019-03-28T06:34:58.502Z,81.28
2019-03-28T06:37:26.385Z,81.13
2019-03-28T06:39:54.263Z,81.14
2019-03-28T06:42:22.266Z,81.04
2019-03-28T06:44:50.130Z,80.04
2019-03-28T06:47:20.952Z,80.25
2019-03-28T06:49:47.882Z,80.17
2019-03-28T06:52:15.744Z,79.77
2019-03-28T06:54:43.642Z,79.32
2019-03-28T06:57:11.800Z,78.66
2019-03-28T06:59:39.662Z,78.90
2019-03-28T07:02:07.521Z,78.66
2019-03-28T07:04:35.462Z,78.86
2019-03-28T07:07:03.344Z,78.74
2019-03-28T07:09:31.320Z,78.26
2019-03-28T07:11:59.222Z,78.02
2019-03-28T07:14:27.104Z,77.91
2019-03-28T07:16:55.009Z,78.05
2019-03-28T07:19:22.859Z,78.66
2019-03-28T07:21:50.746Z,78.45
2019-03-28T07:24:18.707Z,77.99
2019-03-28T07:26:46.561Z,78.08
2019-03-28T07:29:14.451Z,78.47
2019-03-28T07:31:42.368Z,78.12
2019-03-28T07:34:13.381Z,78.20
2019-03-28T07:36:40.128Z,77.97
2019-03-28T07:39:08.011Z,77.36
2019-03-28T07:41:36.290Z,77.07
2019-03-28T07:44:04.400Z,76.52
2019-03-28T07:46:32.353Z,76.74
2019-03-28T07:49:00.317Z,76.56
2019-03-28T07:51:28.240Z,77.44
2019-03-28T07:53:56.163Z,76.06
2019-03-28T07:56:24.467Z,75.93
2019-03-28T07:58:52.429Z,76.00
2019-03-28T08:01:20.362Z,76.40
2019-03-28T08:03:48.354Z,75.11
2019-03-28T08:06:16.269Z,73.96
2019-03-28T08:08:44.352Z,74.66
2019-03-28T08:11:12.372Z,74.00
2019-03-28T08:13:40.357Z,73.88
2019-03-28T08:16:08.309Z,73.53
2019-03-28T08:18:36.219Z,73.49
2019-03-28T08:21:04.292Z,72.53
2019-03-28T08:23:35.166Z,72.26
2019-03-28T08:26:02.110Z,72.46
2019-03-28T08:28:30.077Z,72.31
2019-03-28T08:30:57.987Z,71.68
2019-03-28T08:33:26.553Z,70.52
2019-03-28T08:35:55.481Z,70.75
2019-03-28T08:38:23.363Z,70.51
2019-03-28T08:40:51.678Z,69.66
2019-03-28T08:43:19.945Z,70.60
2019-03-28T08:45:47.863Z,69.74
2019-03-28T08:48:15.769Z,68.77
2019-03-28T08:50:43.629Z,67.15
2019-03-28T08:53:12.166Z,68.80
2019-03-28T08:55:40.040Z,67.12
2019-03-28T08:58:07.943Z,66.28
2019-03-28T09:00:50.770Z,67.20
2019-03-28T09:03:05.823Z,66.24
2019-03-28T09:05:33.765Z,65.79
2019-03-28T09:08:01.641Z,64.97
2019-03-28T09:10:29.480Z,64.69
2019-03-28T09:12:57.388Z,67.78
2019-03-28T09:15:25.307Z,64.05
2019-03-28T09:17:53.162Z,65.68
2019-03-28T09:20:21.021Z,64.78
2019-03-28T09:22:48.939Z,62.74
2019-03-28T09:25:16.800Z,62.71
2019-03-28T09:27:44.762Z,61.04
2019-03-28T09:30:13.155Z,59.80
2019-03-28T09:32:41.061Z,61.58
2019-03-28T09:35:09.502Z,58.59
2019-03-28T09:37:37.388Z,57.89
2019-03-28T09:40:05.414Z,56.28
2019-03-28T09:42:33.307Z,58.74
2019-03-28T09:45:01.202Z,56.22
2019-03-28T09:47:29.144Z,56.57
2019-03-28T09:49:57.022Z,59.46
2019-03-28T09:52:24.903Z,56.27
2019-03-28T09:54:52.780Z,58.33
2019-03-28T09:57:20.679Z,53.35
2019-03-28T09:59:48.545Z,54.79
2019-03-28T10:02:16.488Z,55.36
2019-03-28T10:04:44.380Z,51.84
2019-03-28T10:07:12.280Z,53.46
2019-03-28T10:09:40.182Z,51.40
2019-03-28T10:12:08.077Z,50.24
2019-03-28T10:14:35.961Z,51.82
2019-03-28T10:17:03.864Z,50.12
2019-03-28T10:19:31.802Z,53.73
2019-03-28T10:21:59.719Z,52.62
2019-03-28T10:24:27.592Z,50.40
2019-03-28T10:26:55.576Z,52.81
2019-03-28T10:29:23.441Z,51.89
2019-03-28T10:31:51.313Z,51.12
2019-03-28T10:34:19.347Z,51.14
2019-03-28T10:36:47.243Z,51.12
2019-03-28T10:39:15.167Z,50.97
2019-03-28T10:41:43.127Z,50.83
2019-03-28T10:44:11.088Z,52.52
2019-03-28T10:46:39.005Z,51.23
2019-03-28T10:49:06.891Z,50.59
2019-03-28T10:51:34.856Z,52.23
2019-03-28T10:54:03.089Z,51.92
2019-03-28T10:56:31.027Z,51.46
2019-03-28T10:58:58.930Z,51.12
2019-03-28T11:01:46.992Z,50.37
2019-03-28T11:03:56.706Z,52.65
2019-03-28T11:06:24.647Z,52.34
2019-03-28T11:08:52.549Z,49.09
2019-03-28T11:11:20.525Z,49.92
2019-03-28T11:13:48.466Z,48.32
2019-03-28T11:16:16.382Z,50.86
2019-03-28T11:18:44.330Z,48.83
2019-03-28T11:21:12.249Z,49.72
2019-03-28T11:23:40.203Z,47.50
2019-03-28T11:26:08.173Z,46.28
2019-03-28T11:28:36.204Z,45.72
2019-03-28T11:31:04.116Z,46.16
2019-03-28T11:33:32.133Z,46.12
2019-03-28T11:36:00.091Z,47.35
2019-03-28T11:38:28.790Z,46.51
2019-03-28T11:40:56.869Z,46.07
2019-03-28T11:43:24.872Z,47.37
2019-03-28T11:45:52.805Z,45.65
2019-03-28T11:48:20.793Z,47.42
2019-03-28T11:50:48.786Z,46.49
2019-03-28T11:53:16.709Z,44.79
2019-03-28T11:55:44.645Z,44.43
2019-03-28T11:58:12.605Z,44.46
2019-03-28T12:00:40.545Z,46.84
2019-03-28T12:03:08.448Z,43.74
2019-03-28T12:05:36.421Z,46.77
2019-03-28T12:08:04.325Z,45.79
2019-03-28T12:10:32.303Z,45.87
2019-03-28T12:13:00.193Z,46.51
2019-03-28T12:15:28.108Z,44.28
2019-03-28T12:17:56.076Z,44.79
2019-03-28T12:20:23.989Z,46.05
2019-03-28T12:22:51.991Z,43.95
2019-03-28T12:25:19.871Z,45.54
2019-03-28T12:27:47.808Z,44.48
2019-03-28T12:30:16.530Z,44.64
2019-03-28T12:32:45.412Z,44.48
2019-03-28T12:35:13.394Z,41.97
2019-03-28T12:37:41.427Z,45.24
2019-03-28T12:40:10.078Z,43.92
2019-03-28T12:42:38.027Z,45.33
2019-03-28T12:45:08.402Z,44.14
2019-03-28T12:47:42.310Z,43.13
2019-03-28T12:50:07.457Z,42.32
2019-03-28T12:52:36.553Z,43.16
2019-03-28T12:55:04.708Z,44.76
2019-03-28T12:57:32.630Z,44.68
2019-03-28T13:00:00.551Z,43.36
2019-03-28T13:02:31.809Z,42.42
2019-03-28T13:04:58.293Z,42.36
2019-03-28T13:07:26.210Z,44.80
2019-03-28T13:09:54.168Z,43.66
2019-03-28T13:12:22.126Z,42.91
2019-03-28T13:14:50.046Z,44.43
2019-03-28T13:17:18.009Z,44.32
2019-03-28T13:19:45.914Z,41.63
2019-03-28T13:22:13.867Z,42.37
2019-03-28T13:24:41.847Z,44.31
2019-03-28T13:27:09.786Z,41.24
2019-03-28T13:29:37.769Z,45.29
2019-03-28T13:32:05.733Z,42.92
2019-03-28T13:34:33.726Z,42.82
2019-03-28T13:37:01.707Z,42.15
2019-03-28T13:39:29.671Z,42.23
2019-03-28T13:41:57.595Z,41.68
2019-03-28T13:44:25.487Z,42.22
2019-03-28T13:46:53.475Z,41.74
2019-03-28T13:49:21.366Z,43.19
2019-03-28T13:51:49.304Z,44.51
2019-03-28T13:54:17.275Z,41.99
2019-03-28T13:56:45.268Z,43.21
2019-03-28T13:59:13.218Z,42.67
2019-03-28T14:01:41.123Z,42.35
2019-03-28T14:04:09.029Z,41.02
2019-03-28T14:06:37.027Z,41.13
2019-03-28T14:09:06.203Z,41.39
2019-03-28T14:11:34.190Z,42.69
2019-03-28T14:14:02.223Z,40.67
2019-03-28T14:16:30.172Z,42.09
2019-03-28T14:18:58.107Z,40.88
2019-03-28T14:21:26.046Z,41.45
2019-03-28T14:23:54.029Z,41.30
2019-03-28T14:26:21.987Z,42.19
2019-03-28T14:28:50.447Z,40.17
2019-03-28T14:31:18.584Z,42.16
2019-03-28T14:33:46.655Z,42.00
2019-03-28T14:36:14.645Z,41.51
2019-03-28T14:38:42.636Z,41.02
2019-03-28T14:41:10.650Z,42.63
2019-03-28T14:43:38.623Z,41.55
2019-03-28T14:46:06.557Z,41.56
2019-03-28T14:48:34.502Z,40.97
2019-03-28T14:51:02.649Z,41.12
2019-03-28T14:53:30.627Z,41.34
2019-03-28T14:55:59.149Z,41.12
2019-03-28T14:58:28.154Z,41.13
2019-03-28T15:00:56.216Z,39.49
2019-03-28T15:03:26.630Z,40.41
2019-03-28T15:05:54.319Z,39.84
2019-03-28T15:08:22.458Z,39.38
2019-03-28T15:10:50.651Z,40.81
2019-03-28T15:13:18.889Z,41.46
2019-03-28T15:15:47.033Z,39.33
2019-03-28T15:18:15.381Z,39.69
2019-03-28T15:20:43.533Z,41.25
2019-03-28T15:23:11.546Z,40.84
2019-03-28T15:25:39.507Z,40.44
2019-03-28T15:28:07.612Z,41.06
2019-03-28T15:30:35.669Z,40.05
2019-03-28T15:33:03.710Z,40.67
2019-03-28T15:35:31.822Z,40.35
2019-03-28T15:37:59.927Z,40.29
2019-03-28T15:40:28.091Z,40.32
2019-03-28T15:42:56.227Z,40.57
2019-03-28T15:45:24.704Z,41.29
2019-03-28T15:47:52.790Z,40.07
2019-03-28T15:50:20.928Z,40.55
2019-03-28T15:52:49.269Z,41.44
2019-03-28T15:55:17.956Z,41.05
2019-03-28T15:57:45.984Z,41.09
2019-03-28T16:00:14.336Z,40.61
2019-03-28T16:02:42.781Z,40.51
2019-03-28T16:05:11.977Z,41.08
2019-03-28T16:07:40.283Z,40.75
2019-03-28T16:10:09.714Z,41.13
2019-03-28T16:12:37.760Z,40.65
2019-03-28T16:15:06.736Z,41.11
2019-03-28T16:17:34.920Z,40.54
2019-03-28T16:20:03.296Z,41.40
2019-03-28T16:22:31.510Z,41.08
2019-03-28T16:24:59.530Z,40.92
2019-03-28T16:27:27.709Z,41.29
2019-03-28T16:29:56.047Z,41.49
2019-03-28T16:32:24.433Z,41.72
2019-03-28T16:34:52.795Z,41.89
2019-03-28T16:37:21.587Z,42.00
2019-03-28T16:39:50.257Z,43.52
2019-03-28T16:42:18.907Z,42.72
2019-03-28T16:44:47.128Z,43.38
2019-03-28T16:47:15.628Z,43.61
2019-03-28T16:49:43.982Z,44.24
2019-03-28T16:52:12.498Z,44.14
2019-03-28T16:54:41.000Z,44.19
2019-03-28T16:57:09.340Z,44.66
2019-03-28T16:59:37.642Z,45.00
2019-03-28T17:02:06.091Z,46.12
2019-03-28T17:04:34.266Z,46.92
2019-03-28T17:07:02.787Z,46.17
2019-03-28T17:09:31.982Z,48.90
2019-03-28T17:12:00.514Z,48.45
2019-03-28T17:14:31.199Z,48.09
2019-03-28T17:16:59.768Z,49.44
2019-03-28T17:19:28.301Z,49.06
2019-03-28T17:21:56.899Z,48.54
2019-03-28T17:24:25.431Z,50.41
2019-03-28T17:26:53.807Z,49.99
2019-03-28T17:29:22.280Z,49.88
2019-03-28T17:31:50.807Z,49.48
2019-03-28T17:34:19.176Z,48.52
2019-03-28T17:36:47.669Z,50.43
2019-03-28T17:39:16.068Z,49.42
2019-03-28T17:41:44.569Z,49.13
2019-03-28T17:44:14.464Z,50.17
2019-03-28T17:46:43.258Z,50.80
2019-03-28T17:49:12.033Z,50.76
2019-03-28T17:51:40.661Z,50.88
2019-03-28T17:54:09.227Z,52.61
2019-03-28T17:56:37.823Z,52.44
2019-03-28T17:59:06.349Z,52.45
2019-03-28T18:01:34.728Z,52.65
2019-03-28T18:04:03.304Z,51.91
2019-03-28T18:06:31.850Z,51.85
2019-03-28T18:09:00.434Z,53.49
2019-03-28T18:11:28.976Z,53.20
2019-03-28T18:13:57.664Z,53.04
2019-03-28T18:16:26.734Z,51.97
2019-03-28T18:18:55.308Z,52.07
2019-03-28T18:21:23.892Z,52.54
2019-03-28T18:23:52.497Z,53.33
2019-03-28T18:26:21.113Z,52.32
2019-03-28T18:28:49.618Z,51.08
2019-03-28T18:31:19.309Z,52.81
2019-03-28T18:33:47.866Z,53.91
2019-03-28T18:36:16.438Z,53.57
2019-03-28T18:38:44.976Z,55.37
2019-03-28T18:41:13.490Z,54.05
2019-03-28T18:43:42.152Z,55.51
2019-03-28T18:46:10.688Z,55.36
2019-03-28T18:48:39.308Z,56.15
2019-03-28T18:51:07.909Z,56.19
2019-03-28T18:53:36.381Z,57.31
2019-03-28T18:56:05.036Z,57.46
2019-03-28T18:58:33.523Z,59.33
2019-03-28T19:01:02.182Z,59.72
2019-03-28T19:03:30.684Z,60.51
2019-03-28T19:06:01.739Z,59.41
2019-03-28T19:08:30.383Z,60.56
2019-03-28T19:10:58.928Z,59.62
2019-03-28T19:13:27.532Z,59.73
2019-03-28T19:15:56.194Z,59.29
2019-03-28T19:18:25.105Z,60.93
2019-03-28T19:20:54.374Z,62.52
2019-03-28T19:23:23.049Z,61.34
2019-03-28T19:25:52.886Z,61.31
2019-03-28T19:28:28.725Z,62.95
2019-03-28T19:30:52.151Z,61.61
2019-03-28T19:33:21.252Z,63.17
2019-03-28T19:35:51.206Z,62.64
2019-03-28T19:38:19.755Z,62.02
2019-03-28T19:40:48.374Z,62.79
2019-03-28T19:43:21.073Z,61.61
2019-03-28T19:45:47.826Z,62.25
2019-03-28T19:48:16.439Z,62.55
2019-03-28T19:50:45.673Z,62.02
2019-03-28T19:53:14.203Z,62.50
2019-03-28T19:55:42.986Z,62.58
2019-03-28T19:58:13.589Z,61.21
2019-03-28T20:00:44.291Z,61.27
2019-03-28T20:03:13.328Z,60.74
2019-03-28T20:05:47.998Z,61.35
2019-03-28T20:08:16.097Z,61.98
2019-03-28T20:10:43.402Z,61.54
2019-03-28T20:13:12.071Z,60.85
2019-03-28T20:15:40.665Z,61.69
2019-03-28T20:18:09.818Z,62.32
2019-03-28T20:20:38.628Z,62.46
2019-03-28T20:23:07.355Z,63.01
2019-03-28T20:25:35.926Z,62.76
2019-03-28T20:28:08.591Z,62.67
2019-03-28T20:30:37.129Z,64.01
2019-03-28T20:33:07.249Z,63.59
2019-03-28T20:35:35.839Z,63.31
2019-03-28T20:38:04.472Z,63.82
2019-03-28T20:40:32.885Z,64.01
2019-03-28T20:43:02.808Z,64.46
2019-03-28T20:45:31.465Z,63.21
2019-03-28T20:47:59.979Z,65.07
2019-03-28T20:50:31.554Z,66.35
2019-03-28T20:52:58.787Z,64.91
2019-03-28T20:55:27.632Z,65.95
2019-03-28T20:57:56.488Z,65.49
2019-03-28T21:00:36.568Z,64.76
2019-03-28T21:03:05.110Z,65.97
2019-03-28T21:05:35.386Z,64.38
2019-03-28T21:08:04.045Z,66.51
2019-03-28T21:10:33.610Z,66.72
2019-03-28T21:13:02.305Z,65.62
2019-03-28T21:15:30.867Z,66.37
2019-03-28T21:17:59.503Z,67.13
2019-03-28T21:20:28.031Z,65.76
2019-03-28T21:22:56.466Z,65.49
2019-03-28T21:25:25.148Z,67.08
2019-03-28T21:27:53.647Z,68.07
2019-03-28T21:30:22.034Z,67.56
2019-03-28T21:32:55.651Z,67.84
2019-03-28T21:35:20.882Z,67.04
2019-03-28T21:37:50.214Z,68.63
2019-03-28T21:40:19.543Z,69.35
2019-03-28T21:42:47.876Z,67.76
2019-03-28T21:45:16.380Z,67.49
2019-03-28T21:47:44.801Z,67.24
2019-03-28T21:50:13.444Z,67.61
2019-03-28T21:52:41.829Z,66.90
2019-03-28T21:55:11.627Z,68.59
2019-03-28T21:57:42.504Z,67.02
2019-03-28T22:00:10.246Z,68.51
2019-03-28T22:02:38.877Z,68.90
2019-03-28T22:05:07.960Z,68.22
2019-03-28T22:07:35.905Z,68.70
2019-03-28T22:10:08.501Z,68.17
2019-03-28T22:12:35.020Z,68.53
2019-03-28T22:15:03.061Z,68.50
2019-03-28T22:17:31.061Z,69.31
2019-03-28T22:19:58.940Z,69.09
2019-03-28T22:22:26.875Z,69.65
2019-03-28T22:24:54.760Z,70.71
2019-03-28T22:27:22.661Z,70.43
2019-03-28T22:29:50.586Z,69.24
2019-03-28T22:32:18.462Z,69.83
2019-03-28T22:34:46.380Z,71.05
2019-03-28T22:37:14.310Z,70.57
2019-03-28T22:39:42.422Z,69.08
2019-03-28T22:42:10.743Z,69.32
2019-03-28T22:44:38.613Z,69.15
2019-03-28T22:47:06.501Z,69.74
2019-03-28T22:49:34.501Z,68.68
2019-03-28T22:52:02.499Z,69.22
2019-03-28T22:54:30.497Z,68.93
2019-03-28T22:56:58.621Z,68.92
2019-03-28T22:59:27.052Z,69.61
2019-03-28T23:01:55.186Z,68.48
2019-03-28T23:04:24.045Z,68.64
2019-03-28T23:06:51.970Z,69.02
2019-03-28T23:09:19.941Z,69.78
2019-03-28T23:11:47.892Z,69.71
2019-03-28T23:14:15.836Z,70.00
2019-03-28T23:16:43.722Z,69.94
2019-03-28T23:19:12.153Z,68.79
2019-03-28T23:21:41.009Z,69.37
2019-03-28T23:24:09.800Z,69.41
2019-03-28T23:26:37.660Z,69.53
2019-03-28T23:29:05.500Z,70.98
2019-03-28T23:31:33.420Z,71.39
2019-03-28T23:34:01.383Z,70.95
2019-03-28T23:36:29.680Z,70.06
2019-03-28T23:38:57.581Z,71.49
2019-03-28T23:41:25.529Z,70.42
2019-03-28T23:43:53.445Z,70.94
2019-03-28T23:46:21.283Z,70.56
2019-03-28T23:48:49.220Z,70.00
2019-03-28T23:51:17.080Z,69.94
2019-03-28T23:53:45.006Z,72.14
2019-03-28T23:56:12.899Z,71.12
2019-03-28T23:58:40.744Z,71.93
